createdAt,value
2023-04-03T00:04:24.806Z,1.00
2023-04-03T00:09:27.950Z,1.03
2023-04-03T00:14:31.194Z,1.00
2023-04-03T00:19:36.020Z,1.05
2023-04-03T00:24:39.168Z,0.99
2023-04-03T00:29:42.354Z,0.89
2023-04-03T00:34:46.868Z,1.07
2023-04-03T00:39:50.041Z,0.99
2023-04-03T00:45:32.587Z,0.84
2023-04-03T00:50:40.593Z,0.66
2023-04-03T00:55:45.449Z,0.75
2023-04-03T01:00:54.646Z,0.65
2023-04-03T01:05:59.588Z,0.78
2023-04-03T01:11:02.975Z,0.68
2023-04-03T01:16:08.127Z,0.54
2023-04-03T01:21:47.888Z,0.56
2023-04-03T01:26:52.513Z,0.70
2023-04-03T01:32:00.963Z,0.56
2023-04-03T01:37:04.304Z,0.19
2023-04-03T01:42:07.877Z,0.54
2023-04-03T01:47:17.128Z,0.67
2023-04-03T01:52:20.455Z,0.30
2023-04-03T01:57:23.717Z,0.62
2023-04-03T02:02:28.357Z,0.33
2023-04-03T02:07:31.689Z,0.50
2023-04-03T02:12:35.057Z,0.34
2023-04-03T02:17:39.624Z,0.07
2023-04-03T02:22:42.696Z,0.21
2023-04-03T02:27:45.745Z,0.40
2023-04-03T02:32:50.236Z,0.29
2023-04-03T02:37:53.450Z,0.16
2023-04-03T02:42:56.835Z,0.13
2023-04-03T02:48:02.986Z,0.15
2023-04-03T02:53:06.489Z,0.40
2023-04-03T02:58:10.186Z,0.20
2023-04-03T03:03:15.986Z,0.01
2023-04-03T03:08:21.296Z,0.02
2023-04-03T03:13:24.592Z,-0.09
2023-04-03T03:18:29.081Z,0.25
2023-04-03T03:23:34.250Z,0.21
2023-04-03T03:28:38.768Z,-0.13
2023-04-03T03:33:44.222Z,0.02
2023-04-03T03:38:47.601Z,0.00
2023-04-03T03:43:50.690Z,0.06
2023-04-03T03:48:55.461Z,-0.05
2023-04-03T03:53:58.804Z,-0.28
2023-04-03T03:59:02.047Z,-0.32
2023-04-03T04:04:06.950Z,-0.25
2023-04-03T04:09:11.794Z,-0.21
2023-04-03T04:14:15.468Z,-0.30
2023-04-03T04:19:21.840Z,-0.26
2023-04-03T04:24:26.029Z,-0.31
2023-04-03T04:29:36.314Z,-0.38
2023-04-03T04:34:42.108Z,-0.31
2023-04-03T04:39:45.971Z,-0.40
2023-04-03T04:44:49.449Z,-0.50
2023-04-03T04:49:54.354Z,-0.55
2023-04-03T04:54:58.298Z,-0.63
2023-04-03T05:00:01.751Z,-0.51
2023-04-03T05:05:08.677Z,-0.73
2023-04-03T05:10:12.758Z,-0.63
2023-04-03T05:15:16.606Z,-0.52
2023-04-03T05:20:22.080Z,-0.72
2023-04-03T05:25:27.082Z,-0.89
2023-04-03T05:30:32.238Z,-0.91
2023-04-03T05:35:40.462Z,-0.76
2023-04-03T05:40:45.920Z,-0.91
2023-04-03T05:45:50.442Z,-0.81
2023-04-03T05:50:57.024Z,-0.63
2023-04-03T05:56:02.529Z,-0.71
2023-04-03T06:01:08.857Z,-0.66
2023-04-03T06:06:16.830Z,-0.96
2023-04-03T06:11:20.236Z,-0.80
2023-04-03T06:16:23.430Z,-0.86
2023-04-03T06:21:28.288Z,-0.64
2023-04-03T06:26:31.523Z,-0.36
2023-04-03T06:31:34.799Z,-0.14
2023-04-03T06:36:39.754Z,-0.15
2023-04-03T06:41:42.917Z,-0.06
2023-04-03T06:46:47.674Z,-0.09
2023-04-03T06:51:52.725Z,-0.27
2023-04-03T06:56:55.905Z,0.13
2023-04-03T07:02:00.854Z,0.01
2023-04-03T07:07:05.488Z,-0.17
2023-04-03T07:12:08.960Z,-0.37
2023-04-03T07:17:12.144Z,-0.42
2023-04-03T07:22:16.939Z,-0.47
2023-04-03T07:27:20.643Z,0.05
2023-04-03T07:32:24.208Z,2.24
2023-04-03T07:37:29.044Z,3.22
2023-04-03T07:42:32.677Z,3.10
2023-04-03T07:47:36.151Z,3.51
2023-04-03T07:52:40.714Z,1.67
2023-04-03T07:57:43.857Z,1.80
2023-04-03T08:02:51.389Z,1.75
2023-04-03T08:07:56.606Z,2.56
2023-04-03T08:13:00.042Z,2.05
2023-04-03T08:18:03.381Z,2.59
2023-04-03T08:23:08.139Z,2.48
2023-04-03T08:28:12.008Z,2.91
2023-04-03T08:33:15.275Z,3.36
2023-04-03T08:38:19.978Z,3.84
2023-04-03T08:43:36.057Z,3.02
2023-04-03T08:48:44.537Z,3.86
2023-04-03T08:53:57.552Z,2.89
2023-04-03T08:59:06.348Z,3.79
2023-04-03T09:04:14.912Z,3.37
2023-04-03T09:09:33.347Z,3.72
2023-04-03T09:14:41.540Z,3.91
2023-04-03T09:19:54.058Z,4.48
2023-04-03T09:25:03.916Z,4.20
2023-04-03T09:30:10.207Z,3.82
2023-04-03T09:35:27.315Z,3.19
2023-04-03T09:40:39.873Z,3.51
2023-04-03T09:45:44.045Z,4.15
2023-04-03T09:51:00.656Z,4.80
2023-04-03T09:56:08.035Z,4.80
2023-04-03T10:01:25.656Z,4.39
2023-04-03T10:06:33.315Z,4.77
2023-04-03T10:11:37.887Z,5.23
2023-04-03T10:16:48.602Z,5.66
2023-04-03T10:21:58.245Z,5.78
2023-04-03T10:27:08.867Z,3.48
2023-04-03T10:32:33.770Z,3.49
2023-04-03T10:37:51.913Z,2.26
2023-04-03T10:43:04.920Z,3.31
2023-04-03T10:48:18.610Z,4.08
2023-04-03T10:53:33.726Z,3.32
2023-04-03T10:58:42.715Z,2.96
2023-04-03T11:03:49.722Z,2.88
2023-04-03T11:08:57.911Z,3.29
2023-04-03T11:14:05.467Z,3.28
2023-04-03T11:19:22.398Z,3.78
2023-04-03T11:24:28.620Z,3.95
2023-04-03T11:29:37.685Z,4.10
2023-04-03T11:34:44.455Z,6.01
2023-04-03T11:39:56.553Z,4.50
2023-04-03T11:45:29.975Z,3.82
2023-04-03T11:50:41.856Z,3.59
2023-04-03T11:55:47.648Z,3.18
2023-04-03T12:01:07.186Z,3.64
2023-04-03T12:06:55.896Z,3.74
2023-04-03T12:12:01.484Z,5.36
2023-04-03T12:17:24.843Z,4.58
2023-04-03T12:22:29.174Z,4.25
2023-04-03T12:27:40.444Z,4.93
2023-04-03T12:33:12.811Z,4.48
2023-04-03T12:38:30.974Z,4.68
2023-04-03T12:43:52.614Z,5.78
2023-04-03T12:49:00.641Z,3.96
2023-04-03T12:54:06.888Z,4.49
2023-04-03T12:59:18.042Z,4.18
2023-04-03T13:04:23.129Z,5.03
2023-04-03T13:09:28.858Z,4.00
2023-04-03T13:14:33.756Z,4.10
2023-04-03T13:19:38.613Z,4.40
2023-04-03T13:24:42.099Z,5.48
2023-04-03T13:29:45.936Z,4.10
2023-04-03T13:34:51.409Z,3.30
2023-04-03T13:40:12.556Z,4.91
2023-04-03T13:45:22.614Z,4.99
2023-04-03T13:50:30.006Z,4.30
2023-04-03T13:55:35.915Z,4.55
2023-04-03T14:00:41.820Z,4.30
2023-04-03T14:05:46.848Z,4.35
2023-04-03T14:10:50.824Z,4.40
2023-04-03T14:15:56.441Z,3.67
2023-04-03T14:21:03.765Z,3.88
2023-04-03T14:26:10.730Z,4.67
2023-04-03T14:31:15.095Z,4.72
2023-04-03T14:36:23.079Z,3.78
2023-04-03T14:41:28.151Z,3.49
2023-04-03T14:46:48.112Z,4.06
2023-04-03T14:51:59.636Z,4.50
2023-04-03T14:57:03.499Z,3.43
2023-04-03T15:02:18.022Z,3.65
2023-04-03T15:07:22.908Z,3.35
2023-04-03T15:12:26.614Z,3.75
2023-04-03T15:17:29.878Z,4.10
2023-04-03T15:22:34.858Z,3.84
2023-04-03T15:27:38.563Z,3.40
2023-04-03T15:32:41.802Z,3.03
2023-04-03T15:37:46.354Z,3.41
2023-04-03T15:42:50.006Z,3.90
2023-04-03T15:47:55.440Z,4.20
2023-04-03T15:53:00.086Z,3.36
2023-04-03T15:58:03.665Z,3.20
2023-04-03T16:03:18.508Z,2.73
2023-04-03T16:08:23.547Z,2.93
2023-04-03T16:13:27.130Z,2.82
2023-04-03T16:18:31.350Z,2.63
2023-04-03T16:23:36.381Z,2.89
2023-04-03T16:28:43.686Z,2.89
2023-04-03T16:33:54.009Z,2.55
2023-04-03T16:38:58.693Z,2.57
2023-04-03T16:44:02.106Z,2.48
2023-04-03T16:49:05.657Z,2.63
2023-04-03T16:54:11.505Z,2.62
2023-04-03T16:59:14.703Z,2.51
2023-04-03T17:04:25.394Z,2.52
2023-04-03T17:09:35.648Z,2.61
2023-04-03T17:14:41.802Z,2.45
2023-04-03T17:19:46.363Z,2.36
2023-04-03T17:24:56.629Z,2.42
2023-04-03T17:30:00.972Z,2.42
2023-04-03T17:35:11.090Z,2.34
2023-04-03T17:40:26.118Z,2.19
2023-04-03T17:45:30.096Z,2.15
2023-04-03T17:50:38.367Z,2.16
2023-04-03T17:56:03.577Z,1.94
2023-04-03T18:01:22.512Z,1.96
2023-04-03T18:06:34.386Z,2.00
2023-04-03T18:11:40.310Z,1.83
2023-04-03T18:16:43.537Z,1.78
2023-04-03T18:21:48.743Z,1.83
2023-04-03T18:26:57.707Z,1.72
2023-04-03T18:32:03.887Z,1.67
2023-04-03T18:37:08.452Z,1.72
2023-04-03T18:42:16.571Z,1.61
2023-04-03T18:47:20.081Z,1.58
2023-04-03T18:52:25.488Z,1.58
2023-04-03T18:57:33.373Z,1.67
2023-04-03T19:02:37.552Z,1.52
2023-04-03T19:07:46.281Z,1.53
2023-04-03T19:12:58.735Z,1.46
2023-04-03T19:18:04.630Z,1.47
2023-04-03T19:23:09.537Z,1.51
2023-04-03T19:28:14.959Z,1.44
2023-04-03T19:33:21.617Z,1.26
2023-04-03T19:38:25.225Z,1.32
2023-04-03T19:43:30.496Z,1.24
2023-04-03T19:48:36.601Z,1.31
2023-04-03T19:53:39.870Z,1.23
2023-04-03T19:58:46.016Z,1.32
2023-04-03T20:03:49.608Z,1.32
2023-04-03T20:08:53.678Z,1.27
2023-04-03T20:13:58.484Z,1.31
2023-04-03T20:19:01.679Z,1.44
2023-04-03T20:24:09.339Z,1.36
2023-04-03T20:29:16.681Z,1.34
2023-04-03T20:34:20.146Z,1.12
2023-04-03T20:39:25.009Z,1.34
2023-04-03T20:44:29.942Z,1.23
2023-04-03T20:49:34.370Z,1.23
2023-04-03T20:54:38.429Z,1.25
2023-04-03T20:59:43.749Z,1.37
2023-04-03T21:04:53.053Z,1.24
2023-04-03T21:10:33.839Z,1.24
2023-04-03T21:15:49.235Z,1.13
2023-04-03T21:20:54.082Z,1.23
2023-04-03T21:25:58.189Z,1.22
2023-04-03T21:31:01.446Z,1.33
2023-04-03T21:36:06.234Z,1.26
2023-04-03T21:41:09.463Z,1.11
2023-04-03T21:46:12.697Z,1.17
2023-04-03T21:51:18.010Z,1.16
2023-04-03T21:56:22.208Z,1.08
2023-04-03T22:01:25.579Z,1.15
2023-04-03T22:06:30.751Z,1.05
2023-04-03T22:11:33.871Z,1.30
2023-04-03T22:16:37.202Z,0.99
2023-04-03T22:21:42.283Z,0.92
2023-04-03T22:26:45.503Z,1.03
2023-04-03T22:31:48.729Z,1.11
2023-04-03T22:36:53.660Z,0.93
2023-04-03T22:41:56.909Z,1.03
2023-04-03T22:47:00.093Z,1.14
2023-04-03T22:52:04.929Z,0.93
2023-04-03T22:57:09.605Z,1.01
2023-04-03T23:02:13.534Z,1.18
2023-04-03T23:07:19.461Z,1.17
2023-04-03T23:12:22.841Z,0.83
2023-04-03T23:17:25.992Z,0.91
2023-04-03T23:22:30.760Z,0.84
2023-04-03T23:27:33.845Z,0.84
2023-04-03T23:32:37.046Z,0.76
2023-04-03T23:37:41.721Z,0.59
2023-04-03T23:42:44.776Z,0.55
2023-04-03T23:47:48.007Z,0.39
2023-04-03T23:52:52.602Z,0.20
2023-04-03T23:57:55.731Z,0.14
